KQES

Daesan Rws

Daesan Rws, South Korea
METAR KQES 252230Z AUTO 07001KT 8000 HZ CLR 17/11 A2985 RMK A02 TSNO
Observed Flight Rules
May-25 @ 22:30 UTC (11 minutes ago) Marginal Visual Flight Rules
Wind Visibility Clouds Conditions
70° at 1 knots 7,998 meters
  • Clear skies
  • Haze
Temperatures Readings
Current 17°C / 63°F
Dewpoint 11°C / 52°F
Humidity 68%
Altimeter 29.85" Hg
Pressure 1011 hPa
METAR KQES 252230Z AUTO 07001KT 8000 HZ CLR 17/11 A2985 RMK A02 TSNO
Observed Flight Rules
May-25 @ 22:30 UTC
(11 minutes ago)
MVFR
Wind Visibility
70° at 1 knots 7,998 meters
Clouds
  • Clear skies
Conditions
  • Haze
Temperature Dewpoint
17°C / 63°F 11°C / 52°F
Humidity Altimeter Pressure
68% 29.85" Hg 1011 hPa